createdAt,value
2023-01-30T00:00:27.645Z,20.6
2023-01-30T00:02:11.331Z,20.6
2023-01-30T00:03:55.030Z,20.5
2023-01-30T00:05:38.791Z,20.6
2023-01-30T00:07:22.430Z,20.6
2023-01-30T00:09:06.145Z,20.6
2023-01-30T00:10:49.868Z,20.6
2023-01-30T00:12:33.557Z,20.6
2023-01-30T00:14:17.247Z,20.6
2023-01-30T00:16:00.968Z,20.5
2023-01-30T00:17:44.662Z,20.5
2023-01-30T00:19:28.481Z,20.5
2023-01-30T00:21:12.143Z,20.5
2023-01-30T00:22:55.759Z,20.5
2023-01-30T00:24:39.589Z,20.5
2023-01-30T00:26:23.318Z,20.5
2023-01-30T00:28:07.014Z,20.5
2023-01-30T00:29:50.658Z,20.5
2023-01-30T00:31:34.379Z,20.5
2023-01-30T00:33:18.066Z,20.5
2023-01-30T00:35:01.868Z,20.5
2023-01-30T00:36:45.383Z,20.5
2023-01-30T00:38:29.273Z,20.5
2023-01-30T00:40:12.975Z,20.5
2023-01-30T00:41:56.602Z,20.5
2023-01-30T00:43:40.368Z,20.5
2023-01-30T00:45:23.964Z,20.4
2023-01-30T00:47:07.601Z,20.4
2023-01-30T00:48:51.408Z,20.4
2023-01-30T00:50:35.112Z,20.4
2023-01-30T00:52:18.884Z,20.5
2023-01-30T00:54:02.590Z,20.5
2023-01-30T00:55:46.301Z,20.4
2023-01-30T00:57:29.972Z,20.4
2023-01-30T00:59:13.604Z,20.4
2023-01-30T01:00:57.414Z,20.4
2023-01-30T01:02:41.101Z,20.4
2023-01-30T01:04:24.803Z,20.4
2023-01-30T01:06:08.458Z,20.4
2023-01-30T01:07:52.209Z,20.4
2023-01-30T01:09:35.875Z,20.4
2023-01-30T01:11:19.598Z,20.4
2023-01-30T01:13:03.342Z,20.4
2023-01-30T01:14:46.830Z,20.4
2023-01-30T01:16:30.760Z,20.4
2023-01-30T01:18:14.372Z,20.4
2023-01-30T01:19:58.121Z,20.4
2023-01-30T01:21:41.835Z,20.4
2023-01-30T01:23:25.340Z,20.4
2023-01-30T01:25:09.051Z,20.4
2023-01-30T01:26:52.918Z,20.4
2023-01-30T01:28:36.590Z,20.4
2023-01-30T01:30:20.289Z,20.4
2023-01-30T01:32:04.039Z,20.4
2023-01-30T01:33:47.755Z,20.4
2023-01-30T01:35:31.430Z,20.4
2023-01-30T01:37:15.135Z,20.4
2023-01-30T01:38:58.743Z,20.4
2023-01-30T01:40:42.572Z,20.4
2023-01-30T01:42:26.259Z,20.4
2023-01-30T01:44:09.970Z,20.4
2023-01-30T01:45:53.604Z,20.4
2023-01-30T01:47:37.356Z,20.4
2023-01-30T01:49:20.989Z,20.4
2023-01-30T01:51:04.715Z,20.4
2023-01-30T01:52:48.452Z,20.4
2023-01-30T01:54:32.002Z,20.4
2023-01-30T01:56:15.858Z,20.4
2023-01-30T01:57:59.400Z,20.4
2023-01-30T01:59:43.307Z,20.4
2023-01-30T02:01:26.957Z,20.4
2023-01-30T02:03:10.641Z,20.4
2023-01-30T02:04:54.376Z,20.4
2023-01-30T02:06:38.034Z,20.3
2023-01-30T02:08:21.743Z,20.3
2023-01-30T02:10:05.499Z,20.3
2023-01-30T02:11:49.127Z,20.3
2023-01-30T02:13:32.904Z,20.3
2023-01-30T02:15:16.439Z,20.3
2023-01-30T02:17:00.168Z,20.3
2023-01-30T02:18:43.985Z,20.3
2023-01-30T02:20:27.759Z,20.3
2023-01-30T02:22:11.403Z,20.3
2023-01-30T02:23:55.124Z,20.3
2023-01-30T02:25:38.782Z,20.3
2023-01-30T02:27:22.496Z,20.3
2023-01-30T02:29:06.118Z,20.3
2023-01-30T02:30:49.913Z,20.3
2023-01-30T02:32:33.638Z,20.3
2023-01-30T02:34:17.350Z,20.3
2023-01-30T02:36:00.978Z,20.3
2023-01-30T02:37:44.918Z,20.3
2023-01-30T02:39:28.352Z,20.3
2023-01-30T02:41:12.188Z,20.3
2023-01-30T02:42:55.845Z,20.3
2023-01-30T02:44:39.570Z,20.3
2023-01-30T02:46:23.245Z,20.3
2023-01-30T02:48:06.931Z,20.3
2023-01-30T02:49:50.636Z,20.3
2023-01-30T02:51:34.360Z,20.3
2023-01-30T02:53:18.112Z,20.3
2023-01-30T02:55:01.780Z,20.3
2023-01-30T02:56:45.280Z,20.3
2023-01-30T02:58:29.149Z,20.3
2023-01-30T03:00:12.832Z,20.3
2023-01-30T03:01:56.612Z,20.3
2023-01-30T03:03:40.305Z,20.3
2023-01-30T03:05:23.976Z,20.3
2023-01-30T03:07:07.701Z,20.3
2023-01-30T03:08:51.335Z,20.3
2023-01-30T03:10:35.104Z,20.3
2023-01-30T03:12:18.758Z,20.3
2023-01-30T03:14:02.492Z,20.3
2023-01-30T03:15:46.104Z,20.3
2023-01-30T03:17:29.940Z,20.3
2023-01-30T03:19:13.522Z,20.2
2023-01-30T03:20:57.425Z,20.2
2023-01-30T03:22:41.057Z,20.2
2023-01-30T03:24:24.706Z,20.2
2023-01-30T03:26:08.411Z,20.2
2023-01-30T03:27:52.094Z,20.2
2023-01-30T03:31:19.421Z,20.2
2023-01-30T03:33:03.208Z,20.2
2023-01-30T03:34:46.897Z,20.2
2023-01-30T03:36:30.608Z,20.2
2023-01-30T03:38:14.163Z,20.2
2023-01-30T03:39:58.030Z,20.2
2023-01-30T03:41:41.721Z,20.2
2023-01-30T03:43:25.322Z,20.2
2023-01-30T03:45:09.022Z,20.2
2023-01-30T03:46:52.744Z,20.2
2023-01-30T03:48:36.537Z,20.2
2023-01-30T03:50:20.252Z,20.2
2023-01-30T03:52:03.853Z,20.2
2023-01-30T03:53:47.566Z,20.2
2023-01-30T03:55:31.341Z,20.1
2023-01-30T03:57:15.026Z,20.1
2023-01-30T03:58:58.676Z,20.1
2023-01-30T04:00:42.403Z,20.1
2023-01-30T04:02:25.977Z,20.1
2023-01-30T04:04:09.740Z,20.1
2023-01-30T04:05:53.514Z,20.1
2023-01-30T04:07:37.254Z,20.1
2023-01-30T04:09:21.040Z,20.1
2023-01-30T04:11:04.627Z,20.1
2023-01-30T04:12:48.359Z,20.1
2023-01-30T04:14:32.031Z,20.1
2023-01-30T04:16:15.721Z,20.1
2023-01-30T04:17:59.435Z,20.1
2023-01-30T04:19:43.007Z,20.1
2023-01-30T04:21:26.874Z,20.1
2023-01-30T04:23:10.553Z,20.1
2023-01-30T04:24:54.264Z,20.1
2023-01-30T04:26:37.814Z,20.1
2023-01-30T04:28:21.665Z,20.1
2023-01-30T04:30:05.224Z,20.1
2023-01-30T04:31:49.046Z,20.1
2023-01-30T04:33:32.802Z,20.1
2023-01-30T04:35:16.361Z,20
2023-01-30T04:37:00.159Z,20
2023-01-30T04:38:43.728Z,20
2023-01-30T04:40:27.435Z,20
2023-01-30T04:42:11.209Z,20
2023-01-30T04:43:54.955Z,20
2023-01-30T04:45:38.746Z,20
2023-01-30T04:47:22.425Z,20
2023-01-30T04:49:05.975Z,20
2023-01-30T04:50:49.645Z,20
2023-01-30T04:52:33.351Z,20
2023-01-30T04:54:17.151Z,20
2023-01-30T04:56:00.894Z,20
2023-01-30T04:57:44.573Z,20
2023-01-30T04:59:28.175Z,20
2023-01-30T05:01:11.903Z,20
2023-01-30T05:02:55.575Z,20
2023-01-30T05:04:39.493Z,20
2023-01-30T05:06:23.134Z,20
2023-01-30T05:08:06.704Z,20
2023-01-30T05:09:50.606Z,20
2023-01-30T05:11:34.201Z,20
2023-01-30T05:13:17.981Z,20
2023-01-30T05:15:01.683Z,19.9
2023-01-30T05:16:45.248Z,20
2023-01-30T05:18:28.997Z,20
2023-01-30T05:20:12.617Z,20
2023-01-30T05:21:56.437Z,19.9
2023-01-30T05:23:40.031Z,19.9
2023-01-30T05:25:23.839Z,19.9
2023-01-30T05:27:07.577Z,19.9
2023-01-30T05:28:51.263Z,19.9
2023-01-30T05:30:34.909Z,19.9
2023-01-30T05:32:18.741Z,19.9
2023-01-30T05:34:02.265Z,19.9
2023-01-30T05:35:46.055Z,19.9
2023-01-30T05:37:29.621Z,19.9
2023-01-30T05:39:13.329Z,19.9
2023-01-30T05:40:57.183Z,19.9
2023-01-30T05:42:40.889Z,19.9
2023-01-30T05:44:24.498Z,19.9
2023-01-30T05:46:08.296Z,19.9
2023-01-30T05:47:51.834Z,19.9
2023-01-30T05:49:35.716Z,19.9
2023-01-30T05:51:19.332Z,19.9
2023-01-30T05:53:03.034Z,19.9
2023-01-30T05:54:46.812Z,19.9
2023-01-30T05:56:30.389Z,19.9
2023-01-30T05:58:14.215Z,19.9
2023-01-30T05:59:57.821Z,19.9
2023-01-30T06:01:41.567Z,19.9
2023-01-30T06:03:25.249Z,19.9
2023-01-30T06:05:08.952Z,19.9
2023-01-30T06:06:52.568Z,19.9
2023-01-30T06:08:36.390Z,19.9
2023-01-30T06:10:20.029Z,19.9
2023-01-30T06:12:03.775Z,19.9
2023-01-30T06:13:47.485Z,19.9
2023-01-30T06:15:31.266Z,19.9
2023-01-30T06:17:14.887Z,19.9
2023-01-30T06:18:58.613Z,19.9
2023-01-30T06:20:42.197Z,19.9
2023-01-30T06:22:26.049Z,19.9
2023-01-30T06:24:09.822Z,19.9
2023-01-30T06:25:53.425Z,19.9
2023-01-30T06:27:37.151Z,19.9
2023-01-30T06:29:20.755Z,19.9
2023-01-30T06:31:04.449Z,19.9
2023-01-30T06:32:48.116Z,19.9
2023-01-30T06:34:31.815Z,19.9
2023-01-30T06:36:15.674Z,19.9
2023-01-30T06:37:59.311Z,19.9
2023-01-30T06:39:43.041Z,19.9
2023-01-30T06:41:26.620Z,19.9
2023-01-30T06:43:10.334Z,19.9
2023-01-30T06:44:54.162Z,19.9
2023-01-30T06:46:37.926Z,19.9
2023-01-30T06:48:21.442Z,19.8
2023-01-30T06:50:05.136Z,19.8
2023-01-30T06:51:48.958Z,19.8
2023-01-30T06:53:32.702Z,19.8
2023-01-30T06:55:16.316Z,19.8
2023-01-30T06:57:00.073Z,19.8
2023-01-30T06:58:43.750Z,19.8
2023-01-30T07:00:27.375Z,19.8
2023-01-30T07:02:11.063Z,19.9
2023-01-30T07:03:54.868Z,19.8
2023-01-30T07:05:38.456Z,19.8
2023-01-30T07:07:22.326Z,19.9
2023-01-30T07:09:06.014Z,19.9
2023-01-30T07:10:49.573Z,19.8
2023-01-30T07:12:33.355Z,19.9
2023-01-30T07:14:17.016Z,19.9
2023-01-30T07:16:00.779Z,19.9
2023-01-30T07:17:44.525Z,19.9
2023-01-30T07:19:28.109Z,19.9
2023-01-30T07:21:11.950Z,19.9
2023-01-30T07:22:55.483Z,19.9
2023-01-30T07:24:39.188Z,19.9
2023-01-30T07:26:22.892Z,19.9
2023-01-30T07:28:06.624Z,19.9
2023-01-30T07:29:50.352Z,19.9
2023-01-30T07:31:34.039Z,19.9
2023-01-30T07:33:17.835Z,19.9
2023-01-30T07:35:01.406Z,19.9
2023-01-30T07:36:45.110Z,19.9
2023-01-30T07:38:28.875Z,19.9
2023-01-30T07:40:12.630Z,19.9
2023-01-30T07:41:56.228Z,19.9
2023-01-30T07:45:23.645Z,19.9
2023-01-30T07:47:07.418Z,19.9
2023-01-30T07:48:51.090Z,19.9
2023-01-30T07:50:34.742Z,19.9
2023-01-30T07:52:18.543Z,19.9
2023-01-30T07:54:02.264Z,19.9
2023-01-30T07:55:45.981Z,19.9
2023-01-30T07:57:29.630Z,19.9
2023-01-30T07:59:13.287Z,19.9
2023-01-30T08:00:57.078Z,19.9
2023-01-30T08:02:40.684Z,19.9
2023-01-30T08:04:24.400Z,19.9
2023-01-30T08:06:08.192Z,19.9
2023-01-30T08:07:51.850Z,19.9
2023-01-30T08:09:35.631Z,19.9
2023-01-30T08:11:19.362Z,19.9
2023-01-30T08:13:02.858Z,19.9
2023-01-30T08:14:46.608Z,19.9
2023-01-30T08:16:30.366Z,19.9
2023-01-30T08:18:14.156Z,19.9
2023-01-30T08:19:57.801Z,19.9
2023-01-30T08:21:41.517Z,19.9
2023-01-30T08:23:25.168Z,19.9
2023-01-30T08:25:08.779Z,19.9
2023-01-30T08:26:52.622Z,19.9
2023-01-30T08:28:36.193Z,19.9
2023-01-30T08:30:19.988Z,19.9
2023-01-30T08:32:03.670Z,19.9
2023-01-30T08:33:47.489Z,19.9
2023-01-30T08:35:30.998Z,19.9
2023-01-30T08:37:14.683Z,19.9
2023-01-30T08:38:58.528Z,19.9
2023-01-30T08:40:42.099Z,19.9
2023-01-30T08:42:25.922Z,19.9
2023-01-30T08:44:09.503Z,19.9
2023-01-30T08:45:53.381Z,19.9
2023-01-30T08:47:36.939Z,19.9
2023-01-30T08:49:20.754Z,19.9
2023-01-30T08:51:04.393Z,20
2023-01-30T08:52:48.199Z,20
2023-01-30T08:54:31.716Z,19.9
2023-01-30T08:56:15.552Z,20
2023-01-30T08:57:59.299Z,20
2023-01-30T08:59:43.030Z,20
2023-01-30T09:01:26.564Z,20
2023-01-30T09:03:10.251Z,20
2023-01-30T09:04:54.124Z,20
2023-01-30T09:06:37.712Z,20
2023-01-30T09:08:21.478Z,20
2023-01-30T09:10:05.136Z,20
2023-01-30T09:11:48.971Z,20
2023-01-30T09:13:32.539Z,20
2023-01-30T09:15:16.250Z,20
2023-01-30T09:16:59.991Z,20
2023-01-30T09:18:43.555Z,20
2023-01-30T09:20:27.357Z,20
2023-01-30T09:22:11.104Z,20
2023-01-30T09:23:54.660Z,20
2023-01-30T09:25:38.485Z,20
2023-01-30T09:27:22.178Z,20
2023-01-30T09:29:05.763Z,20
2023-01-30T09:30:49.595Z,20
2023-01-30T09:32:33.313Z,20
2023-01-30T09:34:16.864Z,20
2023-01-30T09:36:00.649Z,20
2023-01-30T09:37:44.351Z,20
2023-01-30T09:39:28.142Z,20
2023-01-30T09:41:11.848Z,20
2023-01-30T09:42:55.457Z,20
2023-01-30T09:44:39.222Z,20
2023-01-30T09:46:22.890Z,20
2023-01-30T09:48:06.668Z,20
2023-01-30T09:49:50.301Z,20
2023-01-30T09:51:33.928Z,19.9
2023-01-30T09:53:17.747Z,20
2023-01-30T09:55:01.423Z,19.9
2023-01-30T09:56:45.006Z,19.9
2023-01-30T09:58:28.866Z,19.9
2023-01-30T10:00:12.410Z,19.9
2023-01-30T10:01:56.190Z,19.9
2023-01-30T10:03:39.956Z,19.9
2023-01-30T10:05:23.520Z,19.9
2023-01-30T10:07:07.234Z,19.9
2023-01-30T10:08:50.924Z,19.9
2023-01-30T10:10:34.660Z,19.9
2023-01-30T10:12:18.518Z,19.9
2023-01-30T10:14:02.231Z,19.9
2023-01-30T10:15:45.754Z,19.9
2023-01-30T10:17:29.649Z,19.9
2023-01-30T10:19:13.220Z,20
2023-01-30T10:20:56.842Z,20
2023-01-30T10:22:40.782Z,20
2023-01-30T10:24:24.406Z,20
2023-01-30T10:26:08.029Z,20
2023-01-30T10:27:51.820Z,20
2023-01-30T10:29:35.526Z,20
2023-01-30T10:31:19.233Z,20
2023-01-30T10:33:02.930Z,20
2023-01-30T10:34:46.631Z,20
2023-01-30T10:36:30.354Z,20
2023-01-30T10:38:14.001Z,20
2023-01-30T10:39:57.728Z,20
2023-01-30T10:41:41.405Z,20
2023-01-30T10:43:25.188Z,20
2023-01-30T10:45:08.790Z,20
2023-01-30T10:46:52.597Z,20
2023-01-30T10:48:36.085Z,20
2023-01-30T10:50:20.007Z,20
2023-01-30T10:52:03.692Z,20
2023-01-30T10:53:47.190Z,20
2023-01-30T10:55:30.919Z,20
2023-01-30T10:57:14.750Z,20
2023-01-30T10:58:58.302Z,20
2023-01-30T11:00:42.052Z,20
2023-01-30T11:02:25.715Z,20
2023-01-30T11:04:09.485Z,20
2023-01-30T11:05:53.278Z,20
2023-01-30T11:07:36.952Z,20
2023-01-30T11:09:20.716Z,20
2023-01-30T11:11:04.379Z,20.1
2023-01-30T11:12:47.929Z,20.1
2023-01-30T11:14:31.625Z,20.1
2023-01-30T11:16:15.325Z,20.1
2023-01-30T11:17:59.093Z,20.2
2023-01-30T11:19:42.742Z,20.2
2023-01-30T11:21:26.581Z,20.2
2023-01-30T11:23:10.201Z,20.2
2023-01-30T11:24:54.005Z,20.2
2023-01-30T11:26:37.553Z,20.2
2023-01-30T11:28:21.382Z,20.2
2023-01-30T11:30:05.027Z,20.2
2023-01-30T11:31:48.850Z,20.2
2023-01-30T11:33:32.459Z,20.2
2023-01-30T11:35:16.226Z,20.2
2023-01-30T11:36:59.754Z,20.1
2023-01-30T11:38:43.601Z,20.1
2023-01-30T11:40:27.165Z,20.1
2023-01-30T11:42:10.916Z,20.1
2023-01-30T11:43:54.647Z,20.1
2023-01-30T11:45:38.448Z,20.1
2023-01-30T11:47:21.995Z,20.1
2023-01-30T11:49:05.758Z,20.1
2023-01-30T11:50:49.541Z,20.1
2023-01-30T11:52:33.151Z,20.1
2023-01-30T11:54:16.969Z,20
2023-01-30T11:56:00.598Z,20
2023-01-30T11:57:44.233Z,20
2023-01-30T11:59:28.038Z,20
2023-01-30T12:01:11.608Z,20
2023-01-30T12:02:55.302Z,20
2023-01-30T12:04:39.115Z,20
2023-01-30T12:06:22.876Z,20
2023-01-30T12:08:06.482Z,20
2023-01-30T12:09:50.187Z,20
2023-01-30T12:11:33.989Z,20
2023-01-30T12:15:01.211Z,19.9
2023-01-30T12:16:45.116Z,20
2023-01-30T12:18:28.812Z,19.9
2023-01-30T12:20:12.321Z,19.9
2023-01-30T12:21:56.102Z,19.9
2023-01-30T12:23:39.744Z,19.9
2023-01-30T12:25:23.566Z,19.9
2023-01-30T12:27:07.257Z,19.9
2023-01-30T12:28:51.005Z,19.9
2023-01-30T12:30:34.719Z,19.9
2023-01-30T12:32:18.252Z,19.9
2023-01-30T12:34:01.950Z,19.9
2023-01-30T12:35:46.300Z,19.9
2023-01-30T12:37:29.355Z,19.9
2023-01-30T12:39:13.065Z,19.9
2023-01-30T12:40:56.810Z,19.9
2023-01-30T12:42:40.459Z,19.9
2023-01-30T12:44:24.163Z,19.9
2023-01-30T12:46:08.003Z,19.9
2023-01-30T12:47:51.727Z,19.9
2023-01-30T12:49:35.402Z,19.9
2023-01-30T12:51:18.977Z,19.9
2023-01-30T12:53:02.684Z,19.8
2023-01-30T12:54:46.611Z,19.9
2023-01-30T12:56:30.280Z,19.8
2023-01-30T12:58:13.910Z,19.8
2023-01-30T12:59:57.654Z,19.8
2023-01-30T13:01:41.442Z,19.8
2023-01-30T13:03:25.034Z,19.8
2023-01-30T13:05:08.748Z,19.8
2023-01-30T13:06:52.298Z,19.8
2023-01-30T13:08:36.164Z,19.8
2023-01-30T13:10:19.845Z,19.8
2023-01-30T13:12:03.529Z,19.8
2023-01-30T13:13:47.255Z,19.8
2023-01-30T13:15:30.961Z,19.8
2023-01-30T13:17:14.509Z,19.8
2023-01-30T13:18:58.215Z,19.8
2023-01-30T13:20:42.057Z,19.8
2023-01-30T13:22:25.618Z,19.8
2023-01-30T13:24:09.469Z,19.8
2023-01-30T13:25:53.187Z,19.8
2023-01-30T13:27:36.778Z,19.7
2023-01-30T13:29:20.557Z,19.7
2023-01-30T13:31:04.128Z,19.7
2023-01-30T13:32:47.839Z,19.7
2023-01-30T13:34:31.694Z,19.7
2023-01-30T13:36:15.354Z,19.7
2023-01-30T13:37:59.075Z,19.7
2023-01-30T13:39:42.763Z,19.7
2023-01-30T13:41:26.352Z,19.7
2023-01-30T13:43:10.071Z,19.7
2023-01-30T13:44:53.920Z,19.7
2023-01-30T13:46:37.582Z,19.7
2023-01-30T13:48:21.326Z,19.7
2023-01-30T13:51:48.738Z,19.7
2023-01-30T13:53:32.259Z,19.7
2023-01-30T13:55:15.976Z,19.7
2023-01-30T13:56:59.673Z,19.7
2023-01-30T13:58:43.502Z,19.7
2023-01-30T14:00:27.169Z,19.7
2023-01-30T14:02:10.824Z,19.7
2023-01-30T14:03:54.684Z,19.7
2023-01-30T14:05:38.296Z,19.7
2023-01-30T14:07:22.016Z,19.7
2023-01-30T14:09:05.786Z,19.7
2023-01-30T14:12:33.209Z,19.7
2023-01-30T14:14:16.803Z,19.6
2023-01-30T14:17:44.240Z,19.6
2023-01-30T14:19:27.956Z,19.7
2023-01-30T14:21:11.545Z,19.6
2023-01-30T14:23:02.238Z,19.5
2023-01-30T14:24:39.083Z,19.2
2023-01-30T14:26:22.747Z,19.2
2023-01-30T14:28:06.329Z,19.3
2023-01-30T14:29:50.025Z,19.3
2023-01-30T14:31:33.842Z,19.3
2023-01-30T14:33:17.604Z,19.4
2023-01-30T14:35:01.284Z,19.4
2023-01-30T14:36:44.975Z,19.4
2023-01-30T14:38:28.679Z,19.4
2023-01-30T14:40:12.233Z,19.4
2023-01-30T14:41:56.064Z,19.4
2023-01-30T14:43:39.799Z,19.4
2023-01-30T14:45:23.539Z,19.4
2023-01-30T14:47:07.200Z,19.5
2023-01-30T14:48:50.825Z,19.5
2023-01-30T14:50:34.451Z,19.5
2023-01-30T14:52:18.259Z,19.5
2023-01-30T14:54:01.863Z,19.5
2023-01-30T14:55:45.559Z,19.5
2023-01-30T14:57:29.443Z,19.5
2023-01-30T14:59:13.133Z,19.5
2023-01-30T15:00:56.837Z,19.5
2023-01-30T15:02:40.378Z,19.5
2023-01-30T15:04:24.324Z,19.5
2023-01-30T15:06:07.950Z,19.5
2023-01-30T15:07:51.644Z,19.5
2023-01-30T15:09:35.348Z,19.5
2023-01-30T15:11:19.100Z,19.5
2023-01-30T15:13:02.772Z,19.5
2023-01-30T15:14:46.497Z,19.5
2023-01-30T15:16:30.190Z,19.5
2023-01-30T15:18:13.847Z,19.5
2023-01-30T15:19:57.549Z,19.5
2023-01-30T15:21:41.365Z,19.6
2023-01-30T15:23:25.025Z,19.6
2023-01-30T15:25:08.510Z,19.6
2023-01-30T15:26:52.401Z,19.6
2023-01-30T15:28:35.977Z,19.6
2023-01-30T15:30:19.809Z,19.6
2023-01-30T15:32:03.497Z,19.6
2023-01-30T15:33:47.074Z,19.6
2023-01-30T15:35:30.904Z,19.6
2023-01-30T15:37:14.607Z,19.6
2023-01-30T15:38:58.323Z,19.6
2023-01-30T15:40:42.023Z,19.6
2023-01-30T15:42:25.660Z,19.6
2023-01-30T15:44:09.446Z,19.6
2023-01-30T15:45:53.112Z,19.6
2023-01-30T15:47:36.812Z,19.6
2023-01-30T15:49:20.508Z,19.6
2023-01-30T15:51:04.079Z,19.5
2023-01-30T15:52:47.912Z,19.5
2023-01-30T15:54:31.697Z,19.5
2023-01-30T15:56:15.176Z,19.5
2023-01-30T15:57:59.035Z,19.5
2023-01-30T15:59:42.574Z,19.5
2023-01-30T16:01:26.433Z,19.5
2023-01-30T16:03:10.162Z,19.5
2023-01-30T16:04:53.768Z,19.5
2023-01-30T16:06:37.513Z,19.5
2023-01-30T16:08:21.293Z,19.5
2023-01-30T16:10:04.798Z,19.5
2023-01-30T16:11:48.790Z,19.5
2023-01-30T16:13:32.269Z,19.5
2023-01-30T16:15:15.986Z,19.5
2023-01-30T16:16:59.686Z,19.5
2023-01-30T16:18:43.404Z,19.5
2023-01-30T16:20:27.116Z,19.5
2023-01-30T16:22:10.847Z,19.5
2023-01-30T16:23:54.407Z,19.5
2023-01-30T16:25:38.204Z,19.5
2023-01-30T16:27:21.809Z,19.5
2023-01-30T16:29:05.622Z,19.5
2023-01-30T16:30:49.220Z,19.5
2023-01-30T16:32:33.067Z,19.5
2023-01-30T16:34:16.611Z,19.5
2023-01-30T16:36:00.396Z,19.5
2023-01-30T16:37:44.029Z,19.5
2023-01-30T16:41:11.424Z,19.5
2023-01-30T16:42:55.142Z,19.5
2023-01-30T16:44:39.006Z,19.5
2023-01-30T16:46:22.643Z,19.5
2023-01-30T16:48:06.372Z,19.5
2023-01-30T16:49:49.998Z,19.5
2023-01-30T16:51:33.700Z,19.5
2023-01-30T16:53:17.341Z,19.5
2023-01-30T16:55:01.194Z,19.5
2023-01-30T16:56:44.906Z,19.5
2023-01-30T16:58:28.455Z,19.5
2023-01-30T17:00:12.293Z,19.5
2023-01-30T17:01:55.917Z,19.5
2023-01-30T17:03:39.572Z,19.5
2023-01-30T17:05:23.267Z,19.5
2023-01-30T17:07:07.208Z,19.5
2023-01-30T17:08:50.824Z,19.5
2023-01-30T17:10:34.589Z,19.5
2023-01-30T17:12:18.183Z,19.5
2023-01-30T17:14:01.780Z,19.5
2023-01-30T17:15:45.491Z,19.5
2023-01-30T17:17:29.189Z,19.5
2023-01-30T17:19:13.050Z,19.5
2023-01-30T17:20:56.707Z,19.5
2023-01-30T17:22:40.504Z,19.5
2023-01-30T17:24:24.158Z,19.5
2023-01-30T17:26:07.698Z,19.5
2023-01-30T17:27:51.532Z,19.5
2023-01-30T17:29:35.252Z,19.5
2023-01-30T17:31:18.936Z,19.5
2023-01-30T17:33:02.640Z,19.5
2023-01-30T17:34:46.372Z,19.5
2023-01-30T17:36:30.034Z,19.5
2023-01-30T17:38:13.680Z,19.5
2023-01-30T17:39:57.335Z,19.5
2023-01-30T17:41:41.195Z,19.5
2023-01-30T17:43:24.930Z,19.5
2023-01-30T17:45:08.426Z,19.5
2023-01-30T17:46:52.216Z,19.5
2023-01-30T17:48:35.934Z,19.5
2023-01-30T17:50:19.594Z,19.5
2023-01-30T17:52:03.526Z,19.5
2023-01-30T17:53:47.096Z,19.5
2023-01-30T17:55:30.726Z,19.5
2023-01-30T17:57:14.400Z,19.5
2023-01-30T17:58:58.075Z,19.5
2023-01-30T18:00:41.921Z,19.4
2023-01-30T18:02:25.600Z,19.4
2023-01-30T18:04:09.224Z,19.5
2023-01-30T18:05:53.046Z,19.4
2023-01-30T18:07:36.611Z,19.4
2023-01-30T18:09:20.413Z,19.4
2023-01-30T18:11:04.109Z,19.4
2023-01-30T18:12:47.911Z,19.4
2023-01-30T18:14:31.371Z,19.4
2023-01-30T18:16:15.278Z,19.4
2023-01-30T18:17:58.800Z,19.4
2023-01-30T18:19:42.672Z,19.4
2023-01-30T18:21:26.477Z,19.4
2023-01-30T18:23:10.076Z,19.4
2023-01-30T18:24:53.674Z,19.4
2023-01-30T18:26:37.467Z,19.4
2023-01-30T18:28:21.169Z,19.4
2023-01-30T18:30:04.792Z,19.4
2023-01-30T18:31:48.573Z,19.4
2023-01-30T18:33:32.091Z,19.4
2023-01-30T18:35:15.941Z,19.4
2023-01-30T18:36:59.680Z,19.5
2023-01-30T18:38:43.371Z,19.5
2023-01-30T18:40:27.077Z,19.5
2023-01-30T18:42:10.717Z,19.5
2023-01-30T18:43:54.470Z,19.5
2023-01-30T18:45:38.197Z,19.5
2023-01-30T18:47:21.880Z,19.5
2023-01-30T18:49:05.486Z,19.5
2023-01-30T18:50:49.316Z,19.5
2023-01-30T18:52:32.936Z,19.5
2023-01-30T18:54:16.548Z,19.5
2023-01-30T18:56:00.404Z,19.5
2023-01-30T18:57:43.935Z,19.5
2023-01-30T18:59:27.884Z,19.5
2023-01-30T19:01:11.389Z,19.6
2023-01-30T19:02:55.126Z,19.6
2023-01-30T19:04:38.744Z,19.6
2023-01-30T19:06:22.560Z,19.6
2023-01-30T19:08:06.325Z,19.6
2023-01-30T19:09:49.990Z,19.6
2023-01-30T19:11:33.772Z,19.6
2023-01-30T19:13:17.407Z,19.5
2023-01-30T19:15:00.950Z,19.5
2023-01-30T19:16:44.670Z,19.5
2023-01-30T19:18:28.377Z,19.5
2023-01-30T19:20:12.212Z,19.5
2023-01-30T19:21:55.933Z,19.5
2023-01-30T19:23:39.686Z,19.5
2023-01-30T19:25:23.242Z,19.5
2023-01-30T19:27:07.043Z,19.5
2023-01-30T19:28:50.747Z,19.5
2023-01-30T19:30:34.489Z,19.5
2023-01-30T19:32:18.138Z,19.5
2023-01-30T19:34:01.852Z,19.5
2023-01-30T19:35:45.483Z,19.5
2023-01-30T19:37:29.095Z,19.5
2023-01-30T19:39:12.957Z,19.5
2023-01-30T19:40:56.644Z,19.5
2023-01-30T19:42:40.334Z,19.5
2023-01-30T19:44:24.120Z,19.5
2023-01-30T19:46:07.807Z,19.5
2023-01-30T19:47:51.458Z,19.5
2023-01-30T19:49:35.153Z,19.5
2023-01-30T19:51:18.878Z,19.5
2023-01-30T19:53:02.577Z,19.5
2023-01-30T19:54:46.249Z,19.5
2023-01-30T19:56:30.012Z,19.5
2023-01-30T19:58:13.643Z,19.5
2023-01-30T19:59:57.391Z,19.5
2023-01-30T20:01:41.096Z,19.5
2023-01-30T20:03:24.772Z,19.5
2023-01-30T20:05:08.449Z,19.5
2023-01-30T20:06:52.191Z,19.5
2023-01-30T20:08:35.928Z,19.5
2023-01-30T20:10:19.446Z,19.5
2023-01-30T20:12:03.193Z,19.6
2023-01-30T20:13:46.876Z,19.6
2023-01-30T20:15:30.689Z,19.6
2023-01-30T20:17:14.422Z,19.7
2023-01-30T20:18:58.126Z,19.7
2023-01-30T20:20:41.803Z,19.7
2023-01-30T20:22:25.355Z,19.6
2023-01-30T20:24:09.250Z,18.9
2023-01-30T20:25:52.784Z,19
2023-01-30T20:27:36.611Z,19.2
2023-01-30T20:29:20.337Z,19.3
2023-01-30T20:31:04.046Z,19.3
2023-01-30T20:32:47.640Z,19.4
2023-01-30T20:34:31.317Z,19.4
2023-01-30T20:36:15.177Z,19.4
2023-01-30T20:37:58.696Z,19.5
2023-01-30T20:39:42.435Z,19.5
2023-01-30T20:41:26.103Z,19.5
2023-01-30T20:43:09.854Z,19.6
2023-01-30T20:44:53.701Z,19.6
2023-01-30T20:46:37.401Z,19.6
2023-01-30T20:48:21.075Z,19.6
2023-01-30T20:50:04.705Z,19.6
2023-01-30T20:51:48.455Z,19.7
2023-01-30T20:53:32.170Z,19.7
2023-01-30T20:55:15.837Z,19.7
2023-01-30T20:56:59.565Z,19.7
2023-01-30T20:58:43.298Z,19.7
2023-01-30T21:00:26.804Z,19.7
2023-01-30T21:02:10.692Z,19.7
2023-01-30T21:03:54.202Z,19.7
2023-01-30T21:05:38.070Z,19.7
2023-01-30T21:07:21.789Z,19.7
2023-01-30T21:09:05.352Z,19.7
2023-01-30T21:10:49.195Z,19.6
2023-01-30T21:12:32.871Z,19.6
2023-01-30T21:14:16.567Z,19.6
2023-01-30T21:16:00.298Z,19.7
2023-01-30T21:17:43.989Z,19.7
2023-01-30T21:19:27.667Z,19.7
2023-01-30T21:21:11.398Z,19.7
2023-01-30T21:22:54.967Z,19.7
2023-01-30T21:24:38.809Z,19.6
2023-01-30T21:26:22.349Z,19.6
2023-01-30T21:28:06.106Z,19.6
2023-01-30T21:29:49.952Z,19.6
2023-01-30T21:31:33.570Z,19.6
2023-01-30T21:33:17.297Z,19.6
2023-01-30T21:35:00.959Z,19.6
2023-01-30T21:36:44.712Z,19.6
2023-01-30T21:38:28.428Z,19.6
2023-01-30T21:40:12.106Z,19.6
2023-01-30T21:41:55.857Z,19.6
2023-01-30T21:43:39.530Z,19.6
2023-01-30T21:45:23.219Z,19.6
2023-01-30T21:47:06.991Z,19.6
2023-01-30T21:48:50.492Z,19.6
2023-01-30T21:50:34.341Z,19.6
2023-01-30T21:52:17.924Z,19.6
2023-01-30T21:54:01.733Z,19.6
2023-01-30T21:55:45.296Z,19.6
2023-01-30T21:57:29.184Z,19.6
2023-01-30T21:59:12.940Z,19.6
2023-01-30T22:00:56.527Z,19.6
2023-01-30T22:02:40.253Z,19.6
2023-01-30T22:04:23.958Z,19.6
2023-01-30T22:06:07.665Z,19.6
2023-01-30T22:07:51.372Z,19.6
2023-01-30T22:09:35.084Z,19.6
2023-01-30T22:11:18.786Z,19.6
2023-01-30T22:13:02.455Z,19.6
2023-01-30T22:14:46.180Z,19.6
2023-01-30T22:16:29.717Z,19.6
2023-01-30T22:18:13.600Z,19.6
2023-01-30T22:19:57.282Z,19.6
2023-01-30T22:21:40.981Z,19.6
2023-01-30T22:23:24.659Z,19.6
2023-01-30T22:25:08.469Z,19.6
2023-01-30T22:26:52.101Z,19.6
2023-01-30T22:28:35.764Z,19.5
2023-01-30T22:30:19.470Z,19.6
2023-01-30T22:32:03.196Z,19.5
2023-01-30T22:33:46.907Z,19.5
2023-01-30T22:35:30.550Z,19.5
2023-01-30T22:37:14.221Z,19.5
2023-01-30T22:38:57.976Z,19.5
2023-01-30T22:40:41.743Z,19.5
2023-01-30T22:42:25.368Z,19.5
2023-01-30T22:44:08.957Z,19.5
2023-01-30T22:45:52.702Z,19.5
2023-01-30T22:47:36.384Z,19.5
2023-01-30T22:49:20.068Z,19.5
2023-01-30T22:51:03.879Z,19.5
2023-01-30T22:52:47.472Z,19.5
2023-01-30T22:54:31.306Z,19.5
2023-01-30T22:56:14.947Z,19.5
2023-01-30T22:57:58.686Z,19.5
2023-01-30T22:59:42.293Z,19.5
2023-01-30T23:01:26.137Z,19.5
2023-01-30T23:03:09.805Z,19.5
2023-01-30T23:04:53.537Z,19.5
2023-01-30T23:06:37.245Z,19.5
2023-01-30T23:08:20.802Z,19.5
2023-01-30T23:10:04.563Z,19.5
2023-01-30T23:11:48.285Z,19.5
2023-01-30T23:13:31.954Z,19.5
2023-01-30T23:15:15.777Z,19.5
2023-01-30T23:16:59.472Z,19.5
2023-01-30T23:18:43.158Z,19.5
2023-01-30T23:20:26.928Z,19.5
2023-01-30T23:22:10.583Z,19.5
2023-01-30T23:23:54.277Z,19.5